createdAt,value
2019-04-20T00:00:58.543Z,54.90
2019-04-20T00:03:32.246Z,55.60
2019-04-20T00:05:57.414Z,54.90
2019-04-20T00:08:29.698Z,55.00
2019-04-20T00:11:04.180Z,55.00
2019-04-20T00:13:38.392Z,55.00
2019-04-20T00:15:55.693Z,55.00
2019-04-20T00:18:26.826Z,54.90
2019-04-20T00:21:05.622Z,55.00
2019-04-20T00:23:46.897Z,54.90
2019-04-20T00:27:01.950Z,54.90
2019-04-20T00:29:20.203Z,54.90
2019-04-20T00:31:43.171Z,54.90
2019-04-20T00:34:07.895Z,55.00
2019-04-20T00:36:27.732Z,55.00
2019-04-20T00:39:00.959Z,55.00
2019-04-20T00:41:27.567Z,55.10
2019-04-20T00:43:58.673Z,55.00
2019-04-20T00:46:34.080Z,55.10
2019-04-20T00:49:02.782Z,55.00
2019-04-20T00:51:39.968Z,55.00
2019-04-20T00:53:57.269Z,55.00
2019-04-20T00:56:24.460Z,55.00
2019-04-20T00:59:08.827Z,54.90
2019-04-20T01:01:42.480Z,55.00
2019-04-20T01:04:14.847Z,55.00
2019-04-20T01:06:56.305Z,55.00
2019-04-20T01:09:22.356Z,55.00
2019-04-20T01:11:51.671Z,55.00
2019-04-20T01:14:30.276Z,55.00
2019-04-20T01:16:57.917Z,55.00
2019-04-20T01:19:20.565Z,55.00
2019-04-20T01:21:54.488Z,55.10
2019-04-20T01:24:23.888Z,55.00
2019-04-20T01:26:53.372Z,55.00
2019-04-20T01:29:29.230Z,55.60
2019-04-20T01:32:02.378Z,55.10
2019-04-20T01:34:34.540Z,55.10
2019-04-20T01:37:05.636Z,55.60
2019-04-20T01:39:27.618Z,55.10
2019-04-20T01:41:47.569Z,55.10
2019-04-20T01:44:18.036Z,55.10
2019-04-20T01:46:50.487Z,55.00
2019-04-20T01:49:20.302Z,55.00
2019-04-20T01:51:53.761Z,55.10
2019-04-20T01:54:33.905Z,55.00
2019-04-20T01:56:59.168Z,55.00
2019-04-20T01:59:39.961Z,54.90
2019-04-20T02:02:19.562Z,54.90
2019-04-20T02:05:04.467Z,55.00
2019-04-20T02:07:34.622Z,55.00
2019-04-20T02:10:02.737Z,55.00
2019-04-20T02:12:31.144Z,55.00
2019-04-20T02:15:00.726Z,55.00
2019-04-20T02:17:33.080Z,55.10
2019-04-20T02:20:19.873Z,55.10
2019-04-20T02:22:45.267Z,55.20
2019-04-20T02:24:55.138Z,55.30
2019-04-20T02:27:30.815Z,55.20
2019-04-20T02:30:25.274Z,55.20
2019-04-20T02:33:14.635Z,55.20
2019-04-20T02:36:06.769Z,55.30
2019-04-20T02:39:05.855Z,55.20
2019-04-20T02:41:37.596Z,55.30
2019-04-20T02:44:04.378Z,55.20
2019-04-20T02:46:06.060Z,55.20
2019-04-20T02:48:41.226Z,55.20
2019-04-20T02:51:13.491Z,55.20
2019-04-20T02:53:51.162Z,55.30
2019-04-20T02:56:12.902Z,55.30
2019-04-20T02:58:41.709Z,55.30
2019-04-20T03:01:16.929Z,55.30
2019-04-20T03:03:33.951Z,55.50
2019-04-20T03:06:12.171Z,55.30
2019-04-20T03:08:46.887Z,55.50
2019-04-20T03:11:20.931Z,55.50
2019-04-20T03:13:42.973Z,55.40
2019-04-20T03:16:15.467Z,55.50
2019-04-20T03:18:39.964Z,55.30
2019-04-20T03:21:11.242Z,55.40
2019-04-20T03:23:54.243Z,55.40
2019-04-20T03:26:19.344Z,55.40
2019-04-20T03:28:54.105Z,55.30
2019-04-20T03:31:59.313Z,55.40
2019-04-20T03:34:23.532Z,55.40
2019-04-20T03:36:39.395Z,55.40
2019-04-20T03:38:57.349Z,55.40
2019-04-20T03:41:18.501Z,55.40
2019-04-20T03:43:37.144Z,55.40
2019-04-20T03:46:10.850Z,55.40
2019-04-20T03:48:52.186Z,55.40
2019-04-20T03:51:30.382Z,55.50
2019-04-20T03:54:14.841Z,55.50
2019-04-20T03:56:54.298Z,55.50
2019-04-20T03:59:33.264Z,55.40
2019-04-20T04:02:22.867Z,55.40
2019-04-20T04:05:08.830Z,55.50
2019-04-20T04:07:30.386Z,55.40
2019-04-20T04:10:04.649Z,55.40
2019-04-20T04:12:41.755Z,55.40
2019-04-20T04:15:06.806Z,55.50
2019-04-20T04:17:39.073Z,55.50
2019-04-20T04:20:10.120Z,55.40
2019-04-20T04:22:50.059Z,55.40
2019-04-20T04:25:15.954Z,55.40
2019-04-20T04:27:55.052Z,55.40
2019-04-20T04:30:20.571Z,55.50
2019-04-20T04:33:26.666Z,55.40
2019-04-20T04:35:18.997Z,55.50
2019-04-20T04:37:54.942Z,55.50
2019-04-20T04:40:37.506Z,55.50
2019-04-20T04:42:52.289Z,55.50
2019-04-20T04:45:07.539Z,55.50
2019-04-20T04:47:32.675Z,55.60
2019-04-20T04:50:09.592Z,55.40
2019-04-20T04:52:44.624Z,55.40
2019-04-20T04:55:16.219Z,55.50
2019-04-20T04:57:30.487Z,55.50
2019-04-20T04:59:59.429Z,55.40
2019-04-20T05:02:32.510Z,55.50
2019-04-20T05:05:35.955Z,55.40
2019-04-20T05:07:58.528Z,55.40
2019-04-20T05:10:16.333Z,55.40
2019-04-20T05:12:45.973Z,55.40
2019-04-20T05:15:31.034Z,55.30
2019-04-20T05:18:07.193Z,55.40
2019-04-20T05:20:35.562Z,55.40
2019-04-20T05:23:07.605Z,55.40
2019-04-20T05:25:53.650Z,56.00
2019-04-20T05:28:16.749Z,56.00
2019-04-20T05:30:42.890Z,55.50
2019-04-20T05:33:08.957Z,55.50
2019-04-20T05:35:58.891Z,55.50
2019-04-20T05:38:32.677Z,55.50
2019-04-20T05:40:51.423Z,55.50
2019-04-20T05:43:27.513Z,55.30
2019-04-20T05:45:56.413Z,55.60
2019-04-20T05:48:33.683Z,55.70
2019-04-20T05:50:57.514Z,55.60
2019-04-20T05:53:34.026Z,55.70
2019-04-20T05:56:01.017Z,56.00
2019-04-20T05:58:36.513Z,56.20
2019-04-20T06:01:06.757Z,56.30
2019-04-20T06:03:28.968Z,56.50
2019-04-20T06:06:03.830Z,56.50
2019-04-20T06:11:02.049Z,56.60
2019-04-20T06:13:33.654Z,56.70
2019-04-20T06:16:13.883Z,56.60
2019-04-20T06:18:45.876Z,56.80
2019-04-20T06:21:31.327Z,56.70
2019-04-20T06:24:02.623Z,56.80
2019-04-20T06:26:43.794Z,57.00
2019-04-20T06:28:55.237Z,57.00
2019-04-20T06:31:35.945Z,56.90
2019-04-20T06:34:25.891Z,57.00
2019-04-20T06:36:48.643Z,57.10
2019-04-20T06:39:17.199Z,57.00
2019-04-20T06:44:21.569Z,57.10
2019-04-20T06:46:45.615Z,57.00
2019-04-20T06:49:17.325Z,57.00
2019-04-20T06:52:11.192Z,55.20
2019-04-20T06:57:39.851Z,53.70
2019-04-20T07:00:14.133Z,53.80
2019-04-20T07:02:43.111Z,53.60
2019-04-20T07:07:41.871Z,53.50
2019-04-20T07:10:16.349Z,53.70
2019-04-20T07:12:33.131Z,53.60
2019-04-20T07:14:56.607Z,53.50
2019-04-20T07:17:54.624Z,53.40
2019-04-20T07:20:19.570Z,53.30
2019-04-20T07:23:03.546Z,53.20
2019-04-20T07:25:29.301Z,52.80
2019-04-20T07:27:59.463Z,53.10
2019-04-20T07:30:21.607Z,53.20
2019-04-20T07:33:08.774Z,53.20
2019-04-20T07:35:24.816Z,53.10
2019-04-20T07:38:21.312Z,53.70
2019-04-20T07:40:26.874Z,53.10
2019-04-20T07:42:58.750Z,52.90
2019-04-20T07:48:01.689Z,52.80
2019-04-20T07:50:18.638Z,52.90
2019-04-20T07:52:43.870Z,52.70
2019-04-20T07:57:46.673Z,52.70
2019-04-20T08:00:30.641Z,52.70
2019-04-20T08:03:18.576Z,52.60
2019-04-20T08:05:48.623Z,52.80
2019-04-20T08:08:37.642Z,52.80
2019-04-20T08:10:54.279Z,52.40
2019-04-20T08:13:39.007Z,52.30
2019-04-20T08:16:00.444Z,52.20
2019-04-20T08:18:35.144Z,52.10
2019-04-20T08:20:58.117Z,52.20
2019-04-20T08:23:28.592Z,52.50
2019-04-20T08:25:47.076Z,52.60
2019-04-20T08:28:24.998Z,52.90
2019-04-20T08:31:18.084Z,53.00
2019-04-20T08:34:07.698Z,53.70
2019-04-20T08:36:29.273Z,53.40
2019-04-20T08:39:16.513Z,53.30
2019-04-20T08:41:20.749Z,53.50
2019-04-20T08:46:26.851Z,53.90
2019-04-20T08:48:56.745Z,54.10
2019-04-20T08:51:25.928Z,54.10
2019-04-20T08:53:51.731Z,54.30
2019-04-20T08:56:18.544Z,54.30
2019-04-20T08:58:33.974Z,54.40
2019-04-20T09:01:05.608Z,54.50
2019-04-20T09:03:44.118Z,54.50
2019-04-20T09:06:09.821Z,54.60
2019-04-20T09:08:44.350Z,54.70
2019-04-20T09:11:19.687Z,54.70
2019-04-20T09:13:39.588Z,54.70
2019-04-20T09:16:02.103Z,54.60
2019-04-20T09:18:43.304Z,54.70
2019-04-20T09:21:19.147Z,54.70
2019-04-20T09:23:54.592Z,54.70
2019-04-20T09:26:25.078Z,54.70
2019-04-20T09:28:59.010Z,54.60
2019-04-20T09:31:39.305Z,54.70
2019-04-20T09:34:39.505Z,54.60
2019-04-20T09:37:24.729Z,54.60
2019-04-20T09:40:03.430Z,54.50
2019-04-20T09:42:38.811Z,54.40
2019-04-20T09:45:08.267Z,54.50
2019-04-20T09:47:43.531Z,54.60
2019-04-20T09:50:22.717Z,54.60
2019-04-20T09:52:51.657Z,54.60
2019-04-20T09:55:18.469Z,54.60
2019-04-20T09:57:54.141Z,54.80
2019-04-20T10:00:25.741Z,54.80
2019-04-20T10:02:38.990Z,55.00
2019-04-20T10:05:05.663Z,55.00
2019-04-20T10:07:35.643Z,55.20
2019-04-20T10:10:15.815Z,55.20
2019-04-20T10:12:33.542Z,55.20
2019-04-20T10:15:06.556Z,54.70
2019-04-20T10:17:33.242Z,55.20
2019-04-20T10:20:03.449Z,55.40
2019-04-20T10:22:30.889Z,55.20
2019-04-20T10:25:00.209Z,55.20
2019-04-20T10:27:28.557Z,55.20
2019-04-20T10:29:57.539Z,55.10
2019-04-20T10:32:36.280Z,55.10
2019-04-20T10:34:56.806Z,55.20
2019-04-20T10:37:35.600Z,55.20
2019-04-20T10:40:04.803Z,55.10
2019-04-20T10:42:34.207Z,55.10
2019-04-20T10:45:04.142Z,55.20
2019-04-20T10:47:32.786Z,55.00
2019-04-20T10:50:00.932Z,54.80
2019-04-20T10:52:29.803Z,54.70
2019-04-20T10:54:58.648Z,54.70
2019-04-20T10:57:27.839Z,54.70
2019-04-20T10:59:55.897Z,54.60
2019-04-20T11:02:24.216Z,54.60
2019-04-20T11:04:52.664Z,54.50
2019-04-20T11:07:20.800Z,54.30
2019-04-20T11:10:00.640Z,54.30
2019-04-20T11:12:18.460Z,54.30
2019-04-20T11:14:46.597Z,54.30
2019-04-20T11:17:14.535Z,54.30
2019-04-20T11:19:43.380Z,54.30
2019-04-20T11:22:12.565Z,54.30
2019-04-20T11:24:40.638Z,54.20
2019-04-20T11:27:09.932Z,54.30
2019-04-20T11:29:38.111Z,54.20
2019-04-20T11:32:07.243Z,54.20
2019-04-20T11:34:39.016Z,54.00
2019-04-20T11:37:06.768Z,53.90
2019-04-20T11:39:34.969Z,53.90
2019-04-20T11:42:03.662Z,54.00
2019-04-20T11:44:33.257Z,53.70
2019-04-20T11:47:01.276Z,53.70
2019-04-20T11:49:29.207Z,53.60
2019-04-20T11:51:57.319Z,53.40
2019-04-20T11:54:26.387Z,53.20
2019-04-20T11:56:55.506Z,53.10
2019-04-20T11:59:23.647Z,53.00
2019-04-20T12:02:03.695Z,53.10
2019-04-20T12:04:42.236Z,53.10
2019-04-20T12:07:03.119Z,53.10
2019-04-20T12:09:31.441Z,53.00
2019-04-20T12:12:12.175Z,52.90
2019-04-20T12:14:30.469Z,52.90
2019-04-20T12:16:59.646Z,52.60
2019-04-20T12:19:29.039Z,53.40
2019-04-20T12:21:57.947Z,54.80
2019-04-20T12:24:26.067Z,54.60
2019-04-20T12:26:54.587Z,54.60
2019-04-20T12:29:23.758Z,54.20
2019-04-20T12:31:56.294Z,53.60
2019-04-20T12:34:22.293Z,53.50
2019-04-20T12:36:51.166Z,53.20
2019-04-20T12:39:19.386Z,53.10
2019-04-20T12:41:53.779Z,53.30
2019-04-20T12:44:17.645Z,53.10
2019-04-20T12:46:47.721Z,52.90
2019-04-20T12:49:15.907Z,52.80
2019-04-20T12:51:50.755Z,51.10
2019-04-20T12:54:16.611Z,51.30
2019-04-20T12:56:46.495Z,51.80
2019-04-20T12:59:15.720Z,52.20
2019-04-20T13:01:44.144Z,52.20
2019-04-20T13:04:12.327Z,52.30
2019-04-20T13:06:40.872Z,52.20
2019-04-20T13:09:12.618Z,52.40
2019-04-20T13:12:05.557Z,52.40
2019-04-20T13:14:42.332Z,52.50
2019-04-20T13:17:10.883Z,52.90
2019-04-20T13:19:39.467Z,53.00
2019-04-20T13:22:07.968Z,53.00
2019-04-20T13:24:36.952Z,53.00
2019-04-20T13:27:05.229Z,53.10
2019-04-20T13:29:33.503Z,53.10
2019-04-20T13:32:02.119Z,53.10
2019-04-20T13:34:30.395Z,53.10
2019-04-20T13:37:00.072Z,53.10
2019-04-20T13:39:28.928Z,52.90
2019-04-20T13:42:06.167Z,52.70
2019-04-20T13:44:27.242Z,52.40
2019-04-20T13:46:56.725Z,52.30
2019-04-20T13:49:25.214Z,52.20
2019-04-20T13:51:53.160Z,51.90
2019-04-20T13:54:24.862Z,51.50
2019-04-20T13:56:52.622Z,48.80
2019-04-20T13:59:46.134Z,50.10
2019-04-20T14:02:21.050Z,47.10
2019-04-20T14:04:54.969Z,43.20
2019-04-20T14:07:24.347Z,46.00
2019-04-20T14:09:53.481Z,47.00
2019-04-20T14:12:28.387Z,47.90
2019-04-20T14:14:53.153Z,48.30
2019-04-20T14:17:21.652Z,48.60
2019-04-20T14:19:50.528Z,48.70
2019-04-20T14:22:18.800Z,48.90
2019-04-20T14:24:46.885Z,49.20
2019-04-20T14:27:15.144Z,49.30
2019-04-20T14:29:43.238Z,49.30
2019-04-20T14:32:12.017Z,49.60
2019-04-20T14:34:40.904Z,49.70
2019-04-20T14:37:09.175Z,49.80
2019-04-20T14:39:38.387Z,49.80
2019-04-20T14:42:06.682Z,49.80
2019-04-20T14:44:34.658Z,49.70
2019-04-20T14:47:03.635Z,49.60
2019-04-20T14:49:32.636Z,49.20
2019-04-20T14:52:02.484Z,49.30
2019-04-20T14:54:31.690Z,49.60
2019-04-20T14:57:01.384Z,49.70
2019-04-20T14:59:36.174Z,49.60
2019-04-20T15:02:08.451Z,49.60
2019-04-20T15:04:37.067Z,49.80
2019-04-20T15:07:06.569Z,49.80
2019-04-20T15:09:38.370Z,49.90
2019-04-20T15:12:06.615Z,49.80
2019-04-20T15:14:34.869Z,49.20
2019-04-20T15:17:04.717Z,49.30
2019-04-20T15:19:59.169Z,49.50
2019-04-20T15:22:34.084Z,49.30
2019-04-20T15:25:03.308Z,49.00
2019-04-20T15:27:33.175Z,49.10
2019-04-20T15:30:02.692Z,49.20
2019-04-20T15:32:31.336Z,49.30
2019-04-20T15:35:00.714Z,49.30
2019-04-20T15:37:28.924Z,49.30
2019-04-20T15:39:57.146Z,49.30
2019-04-20T15:42:25.448Z,49.30
2019-04-20T15:44:55.573Z,48.80
2019-04-20T15:47:24.137Z,48.90
2019-04-20T15:49:53.698Z,47.90
2019-04-20T15:52:26.197Z,48.50
2019-04-20T15:54:51.862Z,48.80
2019-04-20T15:57:25.201Z,48.80
2019-04-20T15:59:50.609Z,48.80
2019-04-20T16:02:29.456Z,49.00
2019-04-20T16:05:03.779Z,49.40
2019-04-20T16:07:40.584Z,48.70
2019-04-20T16:10:03.352Z,49.60
2019-04-20T16:12:31.375Z,49.10
2019-04-20T16:14:59.665Z,49.20
2019-04-20T16:17:33.772Z,49.30
2019-04-20T16:20:06.238Z,49.10
2019-04-20T16:22:28.906Z,49.20
2019-04-20T16:25:11.725Z,48.90
2019-04-20T16:27:41.457Z,49.20
2019-04-20T16:30:13.571Z,49.10
2019-04-20T16:32:42.737Z,49.20
2019-04-20T16:35:11.148Z,49.20
2019-04-20T16:37:40.312Z,48.90
2019-04-20T16:40:11.683Z,49.00
2019-04-20T16:42:42.217Z,49.00
2019-04-20T16:45:11.597Z,49.00
2019-04-20T16:47:42.123Z,49.70
2019-04-20T16:50:10.975Z,48.90
2019-04-20T16:52:39.242Z,49.10
2019-04-20T16:55:08.502Z,49.50
2019-04-20T16:57:37.379Z,49.40
2019-04-20T17:00:07.382Z,49.90
2019-04-20T17:02:36.201Z,49.60
2019-04-20T17:05:05.227Z,49.30
2019-04-20T17:07:39.292Z,49.20
2019-04-20T17:10:08.006Z,49.30
2019-04-20T17:12:35.984Z,49.30
2019-04-20T17:15:05.575Z,49.10
2019-04-20T17:17:35.701Z,49.00
2019-04-20T17:20:03.956Z,49.20
2019-04-20T17:22:32.302Z,49.00
2019-04-20T17:25:01.688Z,49.30
2019-04-20T17:27:59.251Z,49.40
2019-04-20T17:30:50.860Z,49.70
2019-04-20T17:33:25.768Z,49.00
2019-04-20T17:36:03.026Z,49.10
2019-04-20T17:38:22.579Z,48.70
2019-04-20T17:41:02.901Z,48.90
2019-04-20T17:43:29.100Z,48.90
2019-04-20T17:46:02.228Z,48.60
2019-04-20T17:48:33.192Z,47.90
2019-04-20T17:51:13.918Z,48.70
2019-04-20T17:53:47.372Z,48.60
2019-04-20T17:56:10.324Z,48.70
2019-04-20T17:58:41.273Z,48.50
2019-04-20T18:01:41.321Z,48.70
2019-04-20T18:04:27.109Z,48.20
2019-04-20T18:06:45.280Z,47.70
2019-04-20T18:09:07.098Z,47.40
2019-04-20T18:11:33.012Z,47.50
2019-04-20T18:14:01.872Z,47.20
2019-04-20T18:16:53.395Z,47.30
2019-04-20T18:19:13.805Z,46.80
2019-04-20T18:21:59.343Z,46.70
2019-04-20T18:24:50.511Z,47.00
2019-04-20T18:27:17.388Z,47.10
2019-04-20T18:29:45.554Z,47.10
2019-04-20T18:32:09.417Z,47.30
2019-04-20T18:34:57.252Z,47.40
2019-04-20T18:37:23.935Z,47.60
2019-04-20T18:39:57.402Z,47.90
2019-04-20T18:42:30.687Z,48.30
2019-04-20T18:45:09.172Z,48.50
2019-04-20T18:47:40.157Z,48.60
2019-04-20T18:50:00.052Z,48.60
2019-04-20T18:52:21.951Z,49.00
2019-04-20T18:54:53.648Z,49.20
2019-04-20T18:57:25.321Z,49.30
2019-04-20T18:59:54.494Z,49.20
2019-04-20T19:02:26.938Z,49.20
2019-04-20T19:04:50.133Z,49.20
2019-04-20T19:07:19.746Z,49.10
2019-04-20T19:09:48.484Z,49.10
2019-04-20T19:12:16.672Z,49.00
2019-04-20T19:15:05.985Z,49.00
2019-04-20T19:17:52.206Z,48.90
2019-04-20T19:20:20.216Z,48.90
2019-04-20T19:22:48.367Z,48.90
2019-04-20T19:25:23.151Z,48.90
2019-04-20T19:27:52.084Z,48.90
2019-04-20T19:30:27.451Z,48.90
2019-04-20T19:33:05.070Z,48.80
2019-04-20T19:35:30.910Z,48.90
2019-04-20T19:37:56.980Z,48.70
2019-04-20T19:40:28.735Z,48.70
2019-04-20T19:42:59.948Z,48.60
2019-04-20T19:45:44.907Z,48.70
2019-04-20T19:48:00.139Z,48.80
2019-04-20T19:50:54.791Z,48.70
2019-04-20T19:53:12.493Z,48.80
2019-04-20T19:55:31.481Z,49.20
2019-04-20T19:57:59.120Z,49.50
2019-04-20T20:00:14.951Z,49.50
2019-04-20T20:02:43.491Z,49.50
2019-04-20T20:05:15.687Z,49.40
2019-04-20T20:07:45.696Z,49.60
2019-04-20T20:10:12.895Z,49.70
2019-04-20T20:12:48.417Z,49.70
2019-04-20T20:15:20.221Z,49.70
2019-04-20T20:18:02.277Z,49.70
2019-04-20T20:20:38.146Z,49.90
2019-04-20T20:22:48.344Z,49.90
2019-04-20T20:25:12.815Z,50.00
2019-04-20T20:27:49.213Z,50.20
2019-04-20T20:30:18.549Z,50.30
2019-04-20T20:32:56.829Z,50.50
2019-04-20T20:35:20.164Z,50.80
2019-04-20T20:37:45.738Z,50.70
2019-04-20T20:40:18.806Z,51.10
2019-04-20T20:42:52.656Z,51.10
2019-04-20T20:45:19.847Z,50.90
2019-04-20T20:48:01.611Z,51.00
2019-04-20T20:50:32.659Z,50.80
2019-04-20T20:52:54.713Z,50.70
2019-04-20T20:55:22.115Z,50.80
2019-04-20T20:57:47.103Z,50.90
2019-04-20T21:00:24.016Z,50.70
2019-04-20T21:02:45.868Z,50.80
2019-04-20T21:05:07.106Z,50.60
2019-04-20T21:07:36.412Z,50.90
2019-04-20T21:10:06.161Z,50.90
2019-04-20T21:12:36.379Z,50.90
2019-04-20T21:15:08.231Z,51.10
2019-04-20T21:17:41.676Z,51.20
2019-04-20T21:20:19.121Z,51.40
2019-04-20T21:22:54.787Z,51.50
2019-04-20T21:25:07.802Z,51.50
2019-04-20T21:27:37.078Z,51.60
2019-04-20T21:30:17.205Z,51.80
2019-04-20T21:32:42.197Z,51.80
2019-04-20T21:35:10.510Z,52.00
2019-04-20T21:37:34.821Z,52.10
2019-04-20T21:40:15.746Z,52.10
2019-04-20T21:42:39.649Z,52.30
2019-04-20T21:45:08.144Z,52.30
2019-04-20T21:47:36.332Z,52.40
2019-04-20T21:50:18.822Z,52.50
2019-04-20T21:52:39.240Z,52.50
2019-04-20T21:55:01.466Z,52.50
2019-04-20T21:57:32.492Z,52.60
2019-04-20T22:00:08.518Z,52.70
2019-04-20T22:02:32.739Z,52.70
2019-04-20T22:04:58.327Z,52.80
2019-04-20T22:07:26.619Z,52.80
2019-04-20T22:09:56.733Z,52.80
2019-04-20T22:12:28.535Z,52.70
2019-04-20T22:15:00.103Z,52.70
2019-04-20T22:17:28.648Z,52.70
2019-04-20T22:20:10.227Z,52.70
2019-04-20T22:22:45.456Z,52.80
2019-04-20T22:25:10.425Z,52.90
2019-04-20T22:27:27.813Z,52.90
2019-04-20T22:29:54.276Z,52.80
2019-04-20T22:32:23.961Z,52.80
2019-04-20T22:34:56.828Z,52.80
2019-04-20T22:37:28.346Z,52.80
2019-04-20T22:39:56.191Z,52.80
2019-04-20T22:42:23.577Z,52.90
2019-04-20T22:44:56.593Z,52.80
2019-04-20T22:47:25.456Z,52.80
2019-04-20T22:50:12.685Z,52.90
2019-04-20T22:52:34.754Z,52.80
2019-04-20T22:55:10.054Z,52.90
2019-04-20T22:57:36.334Z,52.90
2019-04-20T22:59:58.320Z,53.00
2019-04-20T23:02:22.583Z,53.50
2019-04-20T23:04:48.781Z,53.00
2019-04-20T23:07:17.078Z,52.90
2019-04-20T23:09:50.886Z,53.00
2019-04-20T23:12:18.977Z,52.90
2019-04-20T23:14:44.807Z,52.90
2019-04-20T23:17:18.532Z,53.00
2019-04-20T23:19:48.617Z,53.00
2019-04-20T23:22:13.989Z,53.10
2019-04-20T23:24:41.846Z,53.10
2019-04-20T23:27:15.317Z,53.10
2019-04-20T23:29:41.806Z,53.60
2019-04-20T23:32:13.763Z,53.10
2019-04-20T23:34:40.914Z,53.10
2019-04-20T23:37:16.156Z,53.10
2019-04-20T23:39:41.518Z,53.10
2019-04-20T23:42:11.164Z,53.10
2019-04-20T23:45:00.361Z,53.20
2019-04-20T23:47:52.049Z,53.20
2019-04-20T23:50:36.975Z,53.30
2019-04-20T23:53:06.190Z,53.20
2019-04-20T23:55:16.985Z,53.30
2019-04-20T23:57:46.070Z,53.60
